sensor_id;sensor_type;location;lat;lon;timestamp;P1;durP1;ratioP1;P2;durP2;ratioP2
58071;SDS011;60383;46.626;18.866;2023-04-02T00:02:16;2.05;;;1.40;;
58071;SDS011;60383;46.626;18.866;2023-04-02T00:07:48;2.50;;;1.50;;
58071;SDS011;60383;46.626;18.866;2023-04-02T00:10:37;1.50;;;1.38;;
58071;SDS011;60383;46.626;18.866;2023-04-02T00:15:39;1.55;;;1.40;;
58071;SDS011;60383;46.626;18.866;2023-04-02T00:18:08;1.48;;;1.38;;
58071;SDS011;60383;46.626;18.866;2023-04-02T00:20:39;2.55;;;1.25;;
58071;SDS011;60383;46.626;18.866;2023-04-02T00:23:10;1.70;;;1.08;;
58071;SDS011;60383;46.626;18.866;2023-04-02T00:25:37;1.58;;;1.00;;
58071;SDS011;60383;46.626;18.866;2023-04-02T00:28:13;1.08;;;0.98;;
58071;SDS011;60383;46.626;18.866;2023-04-02T00:33:16;1.05;;;0.88;;
58071;SDS011;60383;46.626;18.866;2023-04-02T00:35:44;1.45;;;1.13;;
58071;SDS011;60383;46.626;18.866;2023-04-02T00:38:17;0.82;;;0.82;;
58071;SDS011;60383;46.626;18.866;2023-04-02T00:40:46;1.10;;;1.00;;
58071;SDS011;60383;46.626;18.866;2023-04-02T00:43:13;0.70;;;0.70;;
58071;SDS011;60383;46.626;18.866;2023-04-02T00:45:40;2.00;;;1.08;;
58071;SDS011;60383;46.626;18.866;2023-04-02T00:48:20;0.95;;;0.70;;
58071;SDS011;60383;46.626;18.866;2023-04-02T00:50:54;0.90;;;0.90;;
58071;SDS011;60383;46.626;18.866;2023-04-02T00:53:23;1.08;;;1.00;;
58071;SDS011;60383;46.626;18.866;2023-04-02T00:55:51;1.55;;;1.23;;
58071;SDS011;60383;46.626;18.866;2023-04-02T00:58:27;2.00;;;1.35;;
58071;SDS011;60383;46.626;18.866;2023-04-02T01:00:57;0.90;;;0.90;;
58071;SDS011;60383;46.626;18.866;2023-04-02T01:06:01;2.42;;;0.95;;
58071;SDS011;60383;46.626;18.866;2023-04-02T01:11:21;0.95;;;0.88;;
58071;SDS011;60383;46.626;18.866;2023-04-02T01:17:03;0.82;;;0.82;;
58071;SDS011;60383;46.626;18.866;2023-04-02T01:22:51;0.82;;;0.82;;
58071;SDS011;60383;46.626;18.866;2023-04-02T01:25:30;0.80;;;0.80;;
58071;SDS011;60383;46.626;18.866;2023-04-02T01:30:48;0.70;;;0.70;;
58071;SDS011;60383;46.626;18.866;2023-04-02T01:33:17;0.77;;;0.73;;
58071;SDS011;60383;46.626;18.866;2023-04-02T01:35:45;0.70;;;0.70;;
58071;SDS011;60383;46.626;18.866;2023-04-02T01:38:21;1.38;;;0.80;;
58071;SDS011;60383;46.626;18.866;2023-04-02T01:40:57;0.70;;;0.70;;
58071;SDS011;60383;46.626;18.866;2023-04-02T01:43:44;0.60;;;0.60;;
58071;SDS011;60383;46.626;18.866;2023-04-02T01:48:52;0.60;;;0.60;;
58071;SDS011;60383;46.626;18.866;2023-04-02T01:51:24;0.60;;;0.60;;
58071;SDS011;60383;46.626;18.866;2023-04-02T01:54:01;1.08;;;0.65;;
58071;SDS011;60383;46.626;18.866;2023-04-02T01:56:28;0.50;;;0.50;;
58071;SDS011;60383;46.626;18.866;2023-04-02T01:58:57;0.50;;;0.50;;
58071;SDS011;60383;46.626;18.866;2023-04-02T02:01:26;0.50;;;0.50;;
58071;SDS011;60383;46.626;18.866;2023-04-02T02:03:57;0.50;;;0.50;;
58071;SDS011;60383;46.626;18.866;2023-04-02T02:06:23;0.68;;;0.68;;
58071;SDS011;60383;46.626;18.866;2023-04-02T02:11:20;0.60;;;0.60;;
58071;SDS011;60383;46.626;18.866;2023-04-02T02:13:59;0.70;;;0.65;;
58071;SDS011;60383;46.626;18.866;2023-04-02T02:16:26;0.70;;;0.70;;
58071;SDS011;60383;46.626;18.866;2023-04-02T02:18:58;0.57;;;0.57;;
58071;SDS011;60383;46.626;18.866;2023-04-02T02:21:40;0.60;;;0.60;;
58071;SDS011;60383;46.626;18.866;2023-04-02T02:24:22;0.60;;;0.60;;
58071;SDS011;60383;46.626;18.866;2023-04-02T02:32:31;0.55;;;0.55;;
58071;SDS011;60383;46.626;18.866;2023-04-02T02:35:00;0.70;;;0.70;;
58071;SDS011;60383;46.626;18.866;2023-04-02T02:37:33;0.63;;;0.60;;
58071;SDS011;60383;46.626;18.866;2023-04-02T02:40:04;0.60;;;0.60;;
58071;SDS011;60383;46.626;18.866;2023-04-02T02:42:39;0.73;;;0.70;;
58071;SDS011;60383;46.626;18.866;2023-04-02T02:45:13;0.70;;;0.55;;
58071;SDS011;60383;46.626;18.866;2023-04-02T02:47:42;0.63;;;0.63;;
58071;SDS011;60383;46.626;18.866;2023-04-02T02:50:13;0.60;;;0.60;;
58071;SDS011;60383;46.626;18.866;2023-04-02T02:52:50;0.60;;;0.60;;
58071;SDS011;60383;46.626;18.866;2023-04-02T02:55:20;0.50;;;0.50;;
58071;SDS011;60383;46.626;18.866;2023-04-02T02:57:58;0.60;;;0.60;;
58071;SDS011;60383;46.626;18.866;2023-04-02T03:00:39;0.60;;;0.60;;
58071;SDS011;60383;46.626;18.866;2023-04-02T03:03:08;0.65;;;0.65;;
58071;SDS011;60383;46.626;18.866;2023-04-02T03:05:40;0.70;;;0.70;;
58071;SDS011;60383;46.626;18.866;2023-04-02T03:08:09;1.48;;;0.77;;
58071;SDS011;60383;46.626;18.866;2023-04-02T03:10:49;0.60;;;0.57;;
58071;SDS011;60383;46.626;18.866;2023-04-02T03:13:30;0.55;;;0.55;;
58071;SDS011;60383;46.626;18.866;2023-04-02T03:21:27;0.60;;;0.60;;
58071;SDS011;60383;46.626;18.866;2023-04-02T03:26:39;1.02;;;1.00;;
58071;SDS011;60383;46.626;18.866;2023-04-02T03:31:47;0.77;;;0.77;;
58071;SDS011;60383;46.626;18.866;2023-04-02T03:34:25;0.70;;;0.70;;
58071;SDS011;60383;46.626;18.866;2023-04-02T03:40:23;0.97;;;0.87;;
58071;SDS011;60383;46.626;18.866;2023-04-02T03:45:38;1.67;;;1.02;;
58071;SDS011;60383;46.626;18.866;2023-04-02T03:48:11;1.63;;;1.10;;
58071;SDS011;60383;46.626;18.866;2023-04-02T03:50:44;1.02;;;1.00;;
58071;SDS011;60383;46.626;18.866;2023-04-02T03:53:15;0.90;;;0.90;;
58071;SDS011;60383;46.626;18.866;2023-04-02T03:55:41;0.70;;;0.70;;
58071;SDS011;60383;46.626;18.866;2023-04-02T04:00:42;1.10;;;0.85;;
58071;SDS011;60383;46.626;18.866;2023-04-02T04:03:15;0.70;;;0.70;;
58071;SDS011;60383;46.626;18.866;2023-04-02T04:05:56;1.33;;;0.80;;
58071;SDS011;60383;46.626;18.866;2023-04-02T04:08:40;1.00;;;0.90;;
58071;SDS011;60383;46.626;18.866;2023-04-02T04:11:14;1.00;;;0.70;;
58071;SDS011;60383;46.626;18.866;2023-04-02T04:13:56;0.82;;;0.77;;
58071;SDS011;60383;46.626;18.866;2023-04-02T04:24:43;1.33;;;0.80;;
58071;SDS011;60383;46.626;18.866;2023-04-02T04:27:57;0.90;;;0.90;;
58071;SDS011;60383;46.626;18.866;2023-04-02T04:30:23;0.80;;;0.80;;
58071;SDS011;60383;46.626;18.866;2023-04-02T04:33:01;0.90;;;0.90;;
58071;SDS011;60383;46.626;18.866;2023-04-02T04:35:38;1.08;;;0.88;;
58071;SDS011;60383;46.626;18.866;2023-04-02T04:38:12;0.82;;;0.82;;
58071;SDS011;60383;46.626;18.866;2023-04-02T04:40:45;0.80;;;0.80;;
58071;SDS011;60383;46.626;18.866;2023-04-02T04:43:20;0.80;;;0.80;;
58071;SDS011;60383;46.626;18.866;2023-04-02T04:54:03;1.10;;;0.80;;
58071;SDS011;60383;46.626;18.866;2023-04-02T04:56:29;1.23;;;0.80;;
58071;SDS011;60383;46.626;18.866;2023-04-02T04:59:00;1.70;;;1.20;;
58071;SDS011;60383;46.626;18.866;2023-04-02T05:01:42;2.17;;;1.60;;
58071;SDS011;60383;46.626;18.866;2023-04-02T05:04:21;2.67;;;1.50;;
58071;SDS011;60383;46.626;18.866;2023-04-02T05:10:02;1.35;;;1.20;;
58071;SDS011;60383;46.626;18.866;2023-04-02T05:12:34;1.38;;;1.00;;
58071;SDS011;60383;46.626;18.866;2023-04-02T05:20:50;1.45;;;1.35;;
58071;SDS011;60383;46.626;18.866;2023-04-02T05:31:07;2.05;;;1.40;;
58071;SDS011;60383;46.626;18.866;2023-04-02T05:33:46;1.80;;;1.00;;
58071;SDS011;60383;46.626;18.866;2023-04-02T05:36:21;1.00;;;0.98;;
58071;SDS011;60383;46.626;18.866;2023-04-02T05:38:49;0.80;;;0.80;;
58071;SDS011;60383;46.626;18.866;2023-04-02T05:41:51;0.80;;;0.80;;
58071;SDS011;60383;46.626;18.866;2023-04-02T05:44:20;1.05;;;0.95;;
58071;SDS011;60383;46.626;18.866;2023-04-02T05:47:01;1.92;;;1.35;;
58071;SDS011;60383;46.626;18.866;2023-04-02T05:52:18;2.95;;;1.90;;
58071;SDS011;60383;46.626;18.866;2023-04-02T05:57:46;2.33;;;1.63;;
58071;SDS011;60383;46.626;18.866;2023-04-02T06:00:31;3.00;;;1.55;;
58071;SDS011;60383;46.626;18.866;2023-04-02T06:03:23;1.45;;;1.05;;
58071;SDS011;60383;46.626;18.866;2023-04-02T06:05:51;1.33;;;1.08;;
58071;SDS011;60383;46.626;18.866;2023-04-02T06:08:23;1.05;;;0.90;;
58071;SDS011;60383;46.626;18.866;2023-04-02T06:10:59;1.48;;;1.00;;
58071;SDS011;60383;46.626;18.866;2023-04-02T06:13:30;2.30;;;1.00;;
58071;SDS011;60383;46.626;18.866;2023-04-02T06:15:56;0.73;;;0.70;;
58071;SDS011;60383;46.626;18.866;2023-04-02T06:18:22;1.50;;;0.90;;
58071;SDS011;60383;46.626;18.866;2023-04-02T06:20:49;1.88;;;0.90;;
58071;SDS011;60383;46.626;18.866;2023-04-02T06:31:17;1.10;;;1.00;;
58071;SDS011;60383;46.626;18.866;2023-04-02T06:33:49;1.25;;;1.05;;
58071;SDS011;60383;46.626;18.866;2023-04-02T06:36:18;1.33;;;0.80;;
58071;SDS011;60383;46.626;18.866;2023-04-02T06:38:44;1.38;;;1.10;;
58071;SDS011;60383;46.626;18.866;2023-04-02T06:41:20;1.40;;;1.30;;
58071;SDS011;60383;46.626;18.866;2023-04-02T06:43:57;1.80;;;1.23;;
58071;SDS011;60383;46.626;18.866;2023-04-02T06:46:46;1.20;;;1.10;;
58071;SDS011;60383;46.626;18.866;2023-04-02T06:51:49;1.13;;;1.02;;
58071;SDS011;60383;46.626;18.866;2023-04-02T06:54:18;0.85;;;0.85;;
58071;SDS011;60383;46.626;18.866;2023-04-02T06:56:49;1.05;;;0.95;;
58071;SDS011;60383;46.626;18.866;2023-04-02T06:59:16;0.85;;;0.80;;
58071;SDS011;60383;46.626;18.866;2023-04-02T07:04:11;1.42;;;1.33;;
58071;SDS011;60383;46.626;18.866;2023-04-02T07:06:36;1.27;;;0.90;;
58071;SDS011;60383;46.626;18.866;2023-04-02T07:09:03;0.93;;;0.80;;
58071;SDS011;60383;46.626;18.866;2023-04-02T07:11:29;2.38;;;0.90;;
58071;SDS011;60383;46.626;18.866;2023-04-02T07:13:54;0.80;;;0.80;;
58071;SDS011;60383;46.626;18.866;2023-04-02T07:16:24;0.70;;;0.70;;
58071;SDS011;60383;46.626;18.866;2023-04-02T07:18:51;1.02;;;0.90;;
58071;SDS011;60383;46.626;18.866;2023-04-02T07:21:19;2.03;;;0.73;;
58071;SDS011;60383;46.626;18.866;2023-04-02T07:23:45;0.70;;;0.70;;
58071;SDS011;60383;46.626;18.866;2023-04-02T07:26:15;0.80;;;0.80;;
58071;SDS011;60383;46.626;18.866;2023-04-02T07:28:44;0.85;;;0.85;;
58071;SDS011;60383;46.626;18.866;2023-04-02T07:31:17;0.90;;;0.70;;
58071;SDS011;60383;46.626;18.866;2023-04-02T07:33:48;0.70;;;0.70;;
58071;SDS011;60383;46.626;18.866;2023-04-02T07:36:15;1.63;;;0.82;;
58071;SDS011;60383;46.626;18.866;2023-04-02T07:38:43;0.80;;;0.80;;
58071;SDS011;60383;46.626;18.866;2023-04-02T07:41:09;0.80;;;0.80;;
58071;SDS011;60383;46.626;18.866;2023-04-02T07:43:35;1.02;;;0.88;;
58071;SDS011;60383;46.626;18.866;2023-04-02T07:46:02;0.85;;;0.85;;
58071;SDS011;60383;46.626;18.866;2023-04-02T07:48:28;0.70;;;0.70;;
58071;SDS011;60383;46.626;18.866;2023-04-02T07:50:54;1.33;;;0.80;;
58071;SDS011;60383;46.626;18.866;2023-04-02T07:53:33;0.75;;;0.75;;
58071;SDS011;60383;46.626;18.866;2023-04-02T07:56:02;0.80;;;0.75;;
58071;SDS011;60383;46.626;18.866;2023-04-02T07:58:28;0.88;;;0.80;;
58071;SDS011;60383;46.626;18.866;2023-04-02T08:00:54;0.88;;;0.88;;
58071;SDS011;60383;46.626;18.866;2023-04-02T08:03:20;1.10;;;1.00;;
58071;SDS011;60383;46.626;18.866;2023-04-02T08:05:52;0.90;;;0.90;;
58071;SDS011;60383;46.626;18.866;2023-04-02T08:08:20;1.63;;;0.95;;
58071;SDS011;60383;46.626;18.866;2023-04-02T08:10:47;0.93;;;0.90;;
58071;SDS011;60383;46.626;18.866;2023-04-02T08:13:13;0.98;;;0.88;;
58071;SDS011;60383;46.626;18.866;2023-04-02T08:15:40;1.50;;;0.98;;
58071;SDS011;60383;46.626;18.866;2023-04-02T08:18:06;1.77;;;1.13;;
58071;SDS011;60383;46.626;18.866;2023-04-02T08:20:32;2.10;;;1.35;;
58071;SDS011;60383;46.626;18.866;2023-04-02T08:22:57;0.90;;;0.90;;
58071;SDS011;60383;46.626;18.866;2023-04-02T08:25:25;1.45;;;1.00;;
58071;SDS011;60383;46.626;18.866;2023-04-02T08:27:51;1.27;;;1.17;;
58071;SDS011;60383;46.626;18.866;2023-04-02T08:30:17;1.52;;;1.20;;
58071;SDS011;60383;46.626;18.866;2023-04-02T08:32:43;1.20;;;1.08;;
58071;SDS011;60383;46.626;18.866;2023-04-02T08:35:09;1.10;;;1.00;;
58071;SDS011;60383;46.626;18.866;2023-04-02T08:37:36;1.00;;;0.90;;
58071;SDS011;60383;46.626;18.866;2023-04-02T08:40:02;1.00;;;0.90;;
58071;SDS011;60383;46.626;18.866;2023-04-02T08:45:19;1.85;;;1.00;;
58071;SDS011;60383;46.626;18.866;2023-04-02T08:47:57;1.10;;;1.00;;
58071;SDS011;60383;46.626;18.866;2023-04-02T08:50:34;1.30;;;1.02;;
58071;SDS011;60383;46.626;18.866;2023-04-02T08:53:26;2.25;;;0.90;;
58071;SDS011;60383;46.626;18.866;2023-04-02T08:58:39;1.25;;;0.80;;
58071;SDS011;60383;46.626;18.866;2023-04-02T09:01:10;1.60;;;1.10;;
58071;SDS011;60383;46.626;18.866;2023-04-02T09:03:48;1.00;;;1.00;;
58071;SDS011;60383;46.626;18.866;2023-04-02T09:06:18;0.90;;;0.90;;
58071;SDS011;60383;46.626;18.866;2023-04-02T09:08:45;1.65;;;1.00;;
58071;SDS011;60383;46.626;18.866;2023-04-02T09:14:10;1.05;;;1.00;;
58071;SDS011;60383;46.626;18.866;2023-04-02T09:16:44;1.70;;;0.80;;
58071;SDS011;60383;46.626;18.866;2023-04-02T09:19:39;1.23;;;0.82;;
58071;SDS011;60383;46.626;18.866;2023-04-02T09:22:42;1.23;;;1.13;;
58071;SDS011;60383;46.626;18.866;2023-04-02T09:25:01;1.65;;;1.02;;
58071;SDS011;60383;46.626;18.866;2023-04-02T09:27:32;1.10;;;1.00;;
58071;SDS011;60383;46.626;18.866;2023-04-02T09:30:52;0.95;;;0.82;;
58071;SDS011;60383;46.626;18.866;2023-04-02T09:32:49;1.05;;;0.95;;
58071;SDS011;60383;46.626;18.866;2023-04-02T09:35:18;1.52;;;1.20;;
58071;SDS011;60383;46.626;18.866;2023-04-02T09:37:46;1.38;;;0.90;;
58071;SDS011;60383;46.626;18.866;2023-04-02T09:40:22;1.30;;;1.20;;
58071;SDS011;60383;46.626;18.866;2023-04-02T09:45:35;0.80;;;0.80;;
58071;SDS011;60383;46.626;18.866;2023-04-02T09:48:01;0.68;;;0.68;;
58071;SDS011;60383;46.626;18.866;2023-04-02T09:50:50;1.92;;;1.15;;
58071;SDS011;60383;46.626;18.866;2023-04-02T09:53:29;0.90;;;0.90;;
58071;SDS011;60383;46.626;18.866;2023-04-02T09:56:08;1.65;;;0.90;;
58071;SDS011;60383;46.626;18.866;2023-04-02T09:58:40;1.77;;;1.00;;
58071;SDS011;60383;46.626;18.866;2023-04-02T10:01:16;1.42;;;1.02;;
58071;SDS011;60383;46.626;18.866;2023-04-02T10:03:51;1.00;;;1.00;;
58071;SDS011;60383;46.626;18.866;2023-04-02T10:06:17;0.82;;;0.82;;
58071;SDS011;60383;46.626;18.866;2023-04-02T10:08:43;0.88;;;0.80;;
58071;SDS011;60383;46.626;18.866;2023-04-02T10:14:03;0.95;;;0.63;;
58071;SDS011;60383;46.626;18.866;2023-04-02T10:16:37;1.38;;;1.00;;
58071;SDS011;60383;46.626;18.866;2023-04-02T10:21:39;0.80;;;0.80;;
58071;SDS011;60383;46.626;18.866;2023-04-02T10:24:11;1.00;;;1.00;;
58071;SDS011;60383;46.626;18.866;2023-04-02T10:26:52;3.67;;;1.20;;
58071;SDS011;60383;46.626;18.866;2023-04-02T10:52:38;0.70;;;0.70;;
58071;SDS011;60383;46.626;18.866;2023-04-02T10:54:52;0.60;;;0.50;;
58071;SDS011;60383;46.626;18.866;2023-04-02T10:59:58;0.93;;;0.50;;
58071;SDS011;60383;46.626;18.866;2023-04-02T11:02:40;0.68;;;0.50;;
58071;SDS011;60383;46.626;18.866;2023-04-02T11:05:20;0.60;;;0.60;;
58071;SDS011;60383;46.626;18.866;2023-04-02T11:07:53;0.43;;;0.40;;
58071;SDS011;60383;46.626;18.866;2023-04-02T11:10:23;0.55;;;0.40;;
58071;SDS011;60383;46.626;18.866;2023-04-02T11:12:57;0.55;;;0.50;;
58071;SDS011;60383;46.626;18.866;2023-04-02T11:15:31;0.50;;;0.50;;
58071;SDS011;60383;46.626;18.866;2023-04-02T11:17:59;1.48;;;0.60;;
58071;SDS011;60383;46.626;18.866;2023-04-02T11:20:41;0.60;;;0.50;;
58071;SDS011;60383;46.626;18.866;2023-04-02T11:23:10;0.52;;;0.50;;
58071;SDS011;60383;46.626;18.866;2023-04-02T11:25:38;0.60;;;0.60;;
58071;SDS011;60383;46.626;18.866;2023-04-02T11:30:50;0.65;;;0.60;;
58071;SDS011;60383;46.626;18.866;2023-04-02T11:35:59;0.82;;;0.40;;
58071;SDS011;60383;46.626;18.866;2023-04-02T11:40:52;0.50;;;0.50;;
58071;SDS011;60383;46.626;18.866;2023-04-02T11:46:42;0.70;;;0.60;;
58071;SDS011;60383;46.626;18.866;2023-04-02T11:48:42;0.60;;;0.60;;
58071;SDS011;60383;46.626;18.866;2023-04-02T11:53:49;0.75;;;0.73;;
58071;SDS011;60383;46.626;18.866;2023-04-02T12:02:02;0.60;;;0.60;;
58071;SDS011;60383;46.626;18.866;2023-04-02T12:10:14;1.23;;;0.80;;
58071;SDS011;60383;46.626;18.866;2023-04-02T12:12:42;0.90;;;0.70;;
58071;SDS011;60383;46.626;18.866;2023-04-02T12:18:20;0.65;;;0.65;;
58071;SDS011;60383;46.626;18.866;2023-04-02T12:20:51;0.95;;;0.65;;
58071;SDS011;60383;46.626;18.866;2023-04-02T12:23:25;0.75;;;0.75;;
58071;SDS011;60383;46.626;18.866;2023-04-02T12:26:02;2.30;;;1.00;;
58071;SDS011;60383;46.626;18.866;2023-04-02T12:28:32;1.73;;;1.40;;
58071;SDS011;60383;46.626;18.866;2023-04-02T12:33:37;1.30;;;1.20;;
58071;SDS011;60383;46.626;18.866;2023-04-02T12:38:43;0.70;;;0.70;;
58071;SDS011;60383;46.626;18.866;2023-04-02T12:41:31;0.50;;;0.50;;
58071;SDS011;60383;46.626;18.866;2023-04-02T12:46:31;0.75;;;0.75;;
58071;SDS011;60383;46.626;18.866;2023-04-02T12:52:04;1.40;;;1.10;;
58071;SDS011;60383;46.626;18.866;2023-04-02T12:54:34;1.97;;;1.70;;
58071;SDS011;60383;46.626;18.866;2023-04-02T13:02:49;1.30;;;0.80;;
58071;SDS011;60383;46.626;18.866;2023-04-02T13:05:42;1.30;;;1.20;;
58071;SDS011;60383;46.626;18.866;2023-04-02T13:10:45;1.58;;;1.27;;
58071;SDS011;60383;46.626;18.866;2023-04-02T13:13:19;1.00;;;0.90;;
58071;SDS011;60383;46.626;18.866;2023-04-02T13:16:04;0.88;;;0.80;;
58071;SDS011;60383;46.626;18.866;2023-04-02T13:21:32;1.27;;;1.00;;
58071;SDS011;60383;46.626;18.866;2023-04-02T13:23:58;1.05;;;0.85;;
58071;SDS011;60383;46.626;18.866;2023-04-02T13:26:24;0.77;;;0.77;;
58071;SDS011;60383;46.626;18.866;2023-04-02T13:31:38;0.57;;;0.57;;
58071;SDS011;60383;46.626;18.866;2023-04-02T13:34:04;0.70;;;0.60;;
58071;SDS011;60383;46.626;18.866;2023-04-02T13:36:29;0.80;;;0.80;;
58071;SDS011;60383;46.626;18.866;2023-04-02T13:38:55;1.50;;;0.70;;
58071;SDS011;60383;46.626;18.866;2023-04-02T13:41:25;0.88;;;0.60;;
58071;SDS011;60383;46.626;18.866;2023-04-02T13:43:56;0.80;;;0.77;;
58071;SDS011;60383;46.626;18.866;2023-04-02T13:46:25;0.75;;;0.68;;
58071;SDS011;60383;46.626;18.866;2023-04-02T13:48:53;0.70;;;0.70;;
58071;SDS011;60383;46.626;18.866;2023-04-02T13:51:20;2.53;;;0.88;;
58071;SDS011;60383;46.626;18.866;2023-04-02T13:53:48;0.70;;;0.70;;
58071;SDS011;60383;46.626;18.866;2023-04-02T13:56:18;1.55;;;1.00;;
58071;SDS011;60383;46.626;18.866;2023-04-02T13:58:44;1.00;;;0.90;;
58071;SDS011;60383;46.626;18.866;2023-04-02T14:01:10;1.33;;;0.80;;
58071;SDS011;60383;46.626;18.866;2023-04-02T14:03:37;1.00;;;0.80;;
58071;SDS011;60383;46.626;18.866;2023-04-02T14:11:52;1.00;;;0.90;;
58071;SDS011;60383;46.626;18.866;2023-04-02T14:14:47;0.70;;;0.70;;
58071;SDS011;60383;46.626;18.866;2023-04-02T14:17:21;1.40;;;0.90;;
58071;SDS011;60383;46.626;18.866;2023-04-02T14:25:38;0.65;;;0.65;;
58071;SDS011;60383;46.626;18.866;2023-04-02T14:36:46;4.93;;;2.97;;
58071;SDS011;60383;46.626;18.866;2023-04-02T14:44:43;1.13;;;1.02;;
58071;SDS011;60383;46.626;18.866;2023-04-02T14:49:51;3.00;;;0.68;;
58071;SDS011;60383;46.626;18.866;2023-04-02T14:52:21;0.77;;;0.70;;
58071;SDS011;60383;46.626;18.866;2023-04-02T14:57:30;2.97;;;1.77;;
58071;SDS011;60383;46.626;18.866;2023-04-02T15:02:48;3.38;;;1.70;;
58071;SDS011;60383;46.626;18.866;2023-04-02T15:05:21;2.50;;;1.60;;
58071;SDS011;60383;46.626;18.866;2023-04-02T15:07:54;2.55;;;1.50;;
58071;SDS011;60383;46.626;18.866;2023-04-02T15:10:28;2.92;;;1.65;;
58071;SDS011;60383;46.626;18.866;2023-04-02T15:12:56;1.25;;;1.15;;
58071;SDS011;60383;46.626;18.866;2023-04-02T15:18:10;0.90;;;0.90;;
58071;SDS011;60383;46.626;18.866;2023-04-02T15:28:49;3.25;;;1.10;;
58071;SDS011;60383;46.626;18.866;2023-04-02T15:31:22;3.00;;;1.27;;
58071;SDS011;60383;46.626;18.866;2023-04-02T15:36:47;1.70;;;1.60;;
58071;SDS011;60383;46.626;18.866;2023-04-02T15:39:24;1.75;;;1.55;;
58071;SDS011;60383;46.626;18.866;2023-04-02T15:44:50;1.33;;;1.20;;
58071;SDS011;60383;46.626;18.866;2023-04-02T15:55:36;1.77;;;1.20;;
58071;SDS011;60383;46.626;18.866;2023-04-02T15:58:19;1.17;;;1.10;;
58071;SDS011;60383;46.626;18.866;2023-04-02T16:00:50;1.10;;;1.02;;
58071;SDS011;60383;46.626;18.866;2023-04-02T16:03:28;0.80;;;0.80;;
58071;SDS011;60383;46.626;18.866;2023-04-02T16:06:13;1.30;;;0.93;;
58071;SDS011;60383;46.626;18.866;2023-04-02T16:11:24;0.88;;;0.88;;
58071;SDS011;60383;46.626;18.866;2023-04-02T16:13:50;1.20;;;1.10;;
58071;SDS011;60383;46.626;18.866;2023-04-02T16:16:26;1.42;;;1.20;;
58071;SDS011;60383;46.626;18.866;2023-04-02T16:21:23;0.73;;;0.73;;
58071;SDS011;60383;46.626;18.866;2023-04-02T16:26:42;1.10;;;1.00;;
58071;SDS011;60383;46.626;18.866;2023-04-02T16:56:00;2.53;;;1.95;;
58071;SDS011;60383;46.626;18.866;2023-04-02T17:07:37;7.50;;;5.30;;
58071;SDS011;60383;46.626;18.866;2023-04-02T17:13:00;10.75;;;7.38;;
58071;SDS011;60383;46.626;18.866;2023-04-02T17:15:34;7.68;;;5.47;;
58071;SDS011;60383;46.626;18.866;2023-04-02T17:18:07;4.80;;;4.30;;
58071;SDS011;60383;46.626;18.866;2023-04-02T17:20:45;6.05;;;4.20;;
58071;SDS011;60383;46.626;18.866;2023-04-02T17:23:14;5.30;;;4.40;;
58071;SDS011;60383;46.626;18.866;2023-04-02T17:25:44;5.72;;;3.60;;
58071;SDS011;60383;46.626;18.866;2023-04-02T17:28:26;6.35;;;4.05;;
58071;SDS011;60383;46.626;18.866;2023-04-02T17:31:01;6.00;;;4.90;;
58071;SDS011;60383;46.626;18.866;2023-04-02T17:33:30;4.75;;;3.55;;
58071;SDS011;60383;46.626;18.866;2023-04-02T17:36:00;4.30;;;3.90;;
58071;SDS011;60383;46.626;18.866;2023-04-02T17:41:19;3.78;;;3.10;;
58071;SDS011;60383;46.626;18.866;2023-04-02T17:43:50;3.30;;;2.83;;
58071;SDS011;60383;46.626;18.866;2023-04-02T17:46:43;3.10;;;2.80;;
58071;SDS011;60383;46.626;18.866;2023-04-02T17:52:04;2.97;;;2.67;;
58071;SDS011;60383;46.626;18.866;2023-04-02T17:54:56;3.25;;;2.80;;
58071;SDS011;60383;46.626;18.866;2023-04-02T18:00:48;4.50;;;3.60;;
58071;SDS011;60383;46.626;18.866;2023-04-02T18:03:30;3.75;;;3.35;;
58071;SDS011;60383;46.626;18.866;2023-04-02T18:06:21;3.80;;;3.22;;
58071;SDS011;60383;46.626;18.866;2023-04-02T18:11:57;4.75;;;3.60;;
58071;SDS011;60383;46.626;18.866;2023-04-02T18:38:59;5.22;;;3.88;;
58071;SDS011;60383;46.626;18.866;2023-04-02T18:44:35;5.20;;;4.27;;
58071;SDS011;60383;46.626;18.866;2023-04-02T18:49:42;8.50;;;4.60;;
58071;SDS011;60383;46.626;18.866;2023-04-02T18:52:14;5.55;;;4.20;;
58071;SDS011;60383;46.626;18.866;2023-04-02T18:54:44;5.45;;;4.40;;
58071;SDS011;60383;46.626;18.866;2023-04-02T18:57:25;7.13;;;5.03;;
58071;SDS011;60383;46.626;18.866;2023-04-02T19:10:45;8.48;;;6.00;;
58071;SDS011;60383;46.626;18.866;2023-04-02T19:13:18;9.50;;;6.43;;
58071;SDS011;60383;46.626;18.866;2023-04-02T19:20:59;8.70;;;6.40;;
58071;SDS011;60383;46.626;18.866;2023-04-02T19:23:49;9.02;;;6.50;;
58071;SDS011;60383;46.626;18.866;2023-04-02T19:26:29;7.70;;;5.30;;
58071;SDS011;60383;46.626;18.866;2023-04-02T19:29:17;7.57;;;6.05;;
58071;SDS011;60383;46.626;18.866;2023-04-02T19:32:12;6.47;;;5.30;;
58071;SDS011;60383;46.626;18.866;2023-04-02T19:34:52;7.25;;;5.57;;
58071;SDS011;60383;46.626;18.866;2023-04-02T19:39:58;8.00;;;5.43;;
58071;SDS011;60383;46.626;18.866;2023-04-02T19:42:29;6.60;;;5.50;;
58071;SDS011;60383;46.626;18.866;2023-04-02T19:45:30;6.03;;;5.40;;
58071;SDS011;60383;46.626;18.866;2023-04-02T19:48:16;6.63;;;5.30;;
58071;SDS011;60383;46.626;18.866;2023-04-02T19:50:44;7.45;;;5.10;;
58071;SDS011;60383;46.626;18.866;2023-04-02T19:53:10;8.35;;;5.13;;
58071;SDS011;60383;46.626;18.866;2023-04-02T19:55:36;7.90;;;5.88;;
58071;SDS011;60383;46.626;18.866;2023-04-02T19:58:02;7.75;;;5.70;;
58071;SDS011;60383;46.626;18.866;2023-04-02T20:00:30;7.18;;;5.32;;
58071;SDS011;60383;46.626;18.866;2023-04-02T20:02:56;6.65;;;5.30;;
58071;SDS011;60383;46.626;18.866;2023-04-02T20:05:22;6.97;;;5.80;;
58071;SDS011;60383;46.626;18.866;2023-04-02T20:07:47;5.65;;;4.68;;
58071;SDS011;60383;46.626;18.866;2023-04-02T20:10:13;6.53;;;5.47;;
58071;SDS011;60383;46.626;18.866;2023-04-02T20:12:38;6.47;;;5.60;;
58071;SDS011;60383;46.626;18.866;2023-04-02T20:15:04;6.32;;;4.93;;
58071;SDS011;60383;46.626;18.866;2023-04-02T20:17:31;7.07;;;5.32;;
58071;SDS011;60383;46.626;18.866;2023-04-02T20:19:56;8.73;;;5.57;;
58071;SDS011;60383;46.626;18.866;2023-04-02T20:22:22;7.55;;;6.00;;
58071;SDS011;60383;46.626;18.866;2023-04-02T20:24:48;8.35;;;6.18;;
58071;SDS011;60383;46.626;18.866;2023-04-02T20:27:13;7.38;;;5.80;;
58071;SDS011;60383;46.626;18.866;2023-04-02T20:29:39;7.88;;;5.72;;
58071;SDS011;60383;46.626;18.866;2023-04-02T20:32:06;7.20;;;6.40;;
58071;SDS011;60383;46.626;18.866;2023-04-02T20:34:33;8.80;;;6.40;;
58071;SDS011;60383;46.626;18.866;2023-04-02T20:36:58;8.07;;;6.43;;
58071;SDS011;60383;46.626;18.866;2023-04-02T20:39:23;8.80;;;6.40;;
58071;SDS011;60383;46.626;18.866;2023-04-02T20:41:49;7.75;;;6.45;;
58071;SDS011;60383;46.626;18.866;2023-04-02T20:44:15;6.82;;;6.00;;
58071;SDS011;60383;46.626;18.866;2023-04-02T20:46:40;6.35;;;5.00;;
58071;SDS011;60383;46.626;18.866;2023-04-02T20:49:06;8.35;;;6.50;;
58071;SDS011;60383;46.626;18.866;2023-04-02T20:51:32;9.48;;;6.90;;
58071;SDS011;60383;46.626;18.866;2023-04-02T20:53:58;8.82;;;6.68;;
58071;SDS011;60383;46.626;18.866;2023-04-02T20:56:24;8.93;;;6.43;;
58071;SDS011;60383;46.626;18.866;2023-04-02T20:58:50;9.27;;;7.22;;
58071;SDS011;60383;46.626;18.866;2023-04-02T21:01:20;10.63;;;7.32;;
58071;SDS011;60383;46.626;18.866;2023-04-02T21:03:47;9.25;;;7.32;;
58071;SDS011;60383;46.626;18.866;2023-04-02T21:06:17;9.75;;;6.55;;
58071;SDS011;60383;46.626;18.866;2023-04-02T21:08:45;8.77;;;6.97;;